createdAt,value
2022-09-12T00:01:50.098Z,61.83
2022-09-12T00:04:16.501Z,61.52
2022-09-12T00:06:43.352Z,61.51
2022-09-12T00:09:10.955Z,61.53
2022-09-12T00:11:37.556Z,61.46
2022-09-12T00:14:04.591Z,61.39
2022-09-12T00:16:33.624Z,61.55
2022-09-12T00:19:00.371Z,61.54
2022-09-12T00:21:27.081Z,61.43
2022-09-12T00:23:53.514Z,61.38
2022-09-12T00:26:20.654Z,61.64
2022-09-12T00:28:47.638Z,61.44
2022-09-12T00:31:14.991Z,61.55
2022-09-12T00:33:43.268Z,61.51
2022-09-12T00:36:10.729Z,61.56
2022-09-12T00:38:37.033Z,61.66
2022-09-12T00:41:03.364Z,61.66
2022-09-12T00:43:34.186Z,61.66
2022-09-12T00:46:02.654Z,61.59
2022-09-12T00:48:31.890Z,61.55
2022-09-12T00:50:59.701Z,61.48
2022-09-12T00:53:26.193Z,61.65
2022-09-12T00:55:53.145Z,61.56
2022-09-12T00:58:21.573Z,61.57
2022-09-12T01:00:48.014Z,61.49
2022-09-12T01:03:15.996Z,61.62
2022-09-12T01:05:44.149Z,61.69
2022-09-12T01:08:11.897Z,61.55
2022-09-12T01:10:39.821Z,61.56
2022-09-12T01:13:09.602Z,61.50
2022-09-12T01:15:37.051Z,61.62
2022-09-12T01:18:09.929Z,61.67
2022-09-12T01:20:50.136Z,61.63
2022-09-12T01:23:24.849Z,61.69
2022-09-12T01:26:00.398Z,61.81
2022-09-12T01:28:36.246Z,61.67
2022-09-12T01:31:06.560Z,61.85
2022-09-12T01:33:40.248Z,61.80
2022-09-12T01:36:15.172Z,61.81
2022-09-12T01:38:46.532Z,62.03
2022-09-12T01:41:20.790Z,61.83
2022-09-12T01:43:49.588Z,62.00
2022-09-12T01:46:19.156Z,61.87
2022-09-12T01:48:47.821Z,61.99
2022-09-12T01:51:18.604Z,61.95
2022-09-12T01:53:48.466Z,61.98
2022-09-12T01:56:17.686Z,61.81
2022-09-12T01:58:46.754Z,61.83
2022-09-12T02:01:15.955Z,61.73
2022-09-12T02:03:46.650Z,61.69
2022-09-12T02:06:17.783Z,61.92
2022-09-12T02:08:46.919Z,61.82
2022-09-12T02:11:13.594Z,61.80
2022-09-12T02:13:41.658Z,61.99
2022-09-12T02:16:09.650Z,61.96
2022-09-12T02:18:38.739Z,61.88
2022-09-12T02:21:07.390Z,61.92
2022-09-12T02:23:36.635Z,61.91
2022-09-12T02:26:05.842Z,62.00
2022-09-12T02:28:34.368Z,61.94
2022-09-12T02:31:04.813Z,61.98
2022-09-12T02:33:33.246Z,61.77
2022-09-12T02:36:04.563Z,61.83
2022-09-12T02:38:35.437Z,62.00
2022-09-12T02:41:01.823Z,61.95
2022-09-12T02:43:28.225Z,62.00
2022-09-12T02:45:54.614Z,61.91
2022-09-12T02:48:22.721Z,62.02
2022-09-12T02:50:49.187Z,61.92
2022-09-12T02:53:15.638Z,61.86
2022-09-12T02:55:43.663Z,62.01
2022-09-12T02:58:11.806Z,61.86
2022-09-12T03:00:42.015Z,61.90
2022-09-12T03:03:15.106Z,61.90
2022-09-12T03:05:44.996Z,61.88
2022-09-12T03:08:19.517Z,62.07
2022-09-12T03:10:58.333Z,62.04
2022-09-12T03:13:28.923Z,61.94
2022-09-12T03:16:03.859Z,61.88
2022-09-12T03:18:35.458Z,61.88
2022-09-12T03:21:04.709Z,61.81
2022-09-12T03:23:33.168Z,62.00
2022-09-12T03:26:05.631Z,61.97
2022-09-12T03:28:32.931Z,61.95
2022-09-12T03:30:59.355Z,61.89
2022-09-12T03:33:25.744Z,61.91
2022-09-12T03:35:52.485Z,61.82
2022-09-12T03:38:19.088Z,61.98
2022-09-12T03:40:45.449Z,61.64
2022-09-12T03:43:13.077Z,61.86
2022-09-12T03:45:39.422Z,61.79
2022-09-12T03:48:06.523Z,61.79
2022-09-12T03:50:32.868Z,61.74
2022-09-12T03:52:59.515Z,61.77
2022-09-12T03:55:25.842Z,61.66
2022-09-12T03:57:52.727Z,61.59
2022-09-12T04:00:20.590Z,61.55
2022-09-12T04:02:47.019Z,61.65
2022-09-12T04:05:13.395Z,61.51
2022-09-12T04:07:39.743Z,61.43
2022-09-12T04:10:06.434Z,61.39
2022-09-12T04:12:32.794Z,61.33
2022-09-12T04:14:59.117Z,61.31
2022-09-12T04:17:26.801Z,61.32
2022-09-12T04:19:53.121Z,61.26
2022-09-12T04:22:19.420Z,61.16
2022-09-12T04:24:45.741Z,61.13
2022-09-12T04:27:12.052Z,61.05
2022-09-12T04:29:38.486Z,61.18
2022-09-12T04:32:04.925Z,61.00
2022-09-12T04:34:32.660Z,61.12
2022-09-12T04:36:59.000Z,61.00
2022-09-12T04:39:25.443Z,61.09
2022-09-12T04:41:51.802Z,60.88
2022-09-12T04:44:18.389Z,60.99
2022-09-12T04:46:46.504Z,60.93
2022-09-12T04:49:13.696Z,60.87
2022-09-12T04:51:41.676Z,60.89
2022-09-12T04:54:11.659Z,60.87
2022-09-12T04:56:39.061Z,61.04
2022-09-12T04:59:05.586Z,60.66
2022-09-12T05:01:32.401Z,60.83
2022-09-12T05:03:58.916Z,60.61
2022-09-12T05:06:26.675Z,60.81
2022-09-12T05:08:54.749Z,60.96
2022-09-12T05:11:25.481Z,61.23
2022-09-12T05:13:53.142Z,61.23
2022-09-12T05:16:20.199Z,61.27
2022-09-12T05:18:46.944Z,61.03
2022-09-12T05:21:14.606Z,61.22
2022-09-12T05:23:41.331Z,61.10
2022-09-12T05:26:12.879Z,61.14
2022-09-12T05:28:39.220Z,62.35
2022-09-12T05:31:06.648Z,64.11
2022-09-12T05:33:33.683Z,65.38
2022-09-12T05:36:00.334Z,69.39
2022-09-12T05:38:27.057Z,67.68
2022-09-12T05:40:53.399Z,66.51
2022-09-12T05:43:20.986Z,65.01
2022-09-12T05:45:47.373Z,64.75
2022-09-12T05:48:13.700Z,63.81
2022-09-12T05:50:40.012Z,63.54
2022-09-12T05:53:06.385Z,63.76
2022-09-12T05:55:32.689Z,64.42
2022-09-12T05:57:59.039Z,62.18
2022-09-12T06:00:29.362Z,61.34
2022-09-12T06:02:59.209Z,60.78
2022-09-12T06:05:25.621Z,60.71
2022-09-12T06:07:51.963Z,60.49
2022-09-12T06:10:18.462Z,60.26
2022-09-12T06:12:44.804Z,60.30
2022-09-12T06:15:11.147Z,60.04
2022-09-12T06:17:38.772Z,60.25
2022-09-12T06:20:05.361Z,60.17
2022-09-12T06:22:31.691Z,60.43
2022-09-12T06:24:58.223Z,60.69
2022-09-12T06:27:24.846Z,60.51
2022-09-12T06:29:51.226Z,60.06
2022-09-12T06:32:17.581Z,59.65
2022-09-12T06:34:45.248Z,59.22
2022-09-12T06:37:11.649Z,59.16
2022-09-12T06:39:38.025Z,58.94
2022-09-12T06:42:04.632Z,59.25
2022-09-12T06:44:30.953Z,59.31
2022-09-12T06:46:57.300Z,59.37
2022-09-12T06:49:23.634Z,59.53
2022-09-12T06:51:51.317Z,60.72
2022-09-12T06:54:17.637Z,61.47
2022-09-12T06:56:44.013Z,61.48
2022-09-12T06:59:10.344Z,62.12
2022-09-12T07:01:36.761Z,62.38
2022-09-12T07:04:03.985Z,62.27
2022-09-12T07:06:34.909Z,62.01
2022-09-12T07:09:03.956Z,62.32
2022-09-12T07:11:31.121Z,62.07
2022-09-12T07:13:58.800Z,62.69
2022-09-12T07:16:25.484Z,62.36
2022-09-12T07:18:52.233Z,62.37
2022-09-12T07:21:18.593Z,62.60
2022-09-12T07:23:44.936Z,62.36
2022-09-12T07:26:13.475Z,62.38
2022-09-12T07:28:40.075Z,62.34
2022-09-12T07:31:07.149Z,62.48
2022-09-12T07:33:33.531Z,62.63
2022-09-12T07:36:00.757Z,62.34
2022-09-12T07:38:27.114Z,62.01
2022-09-12T07:40:53.503Z,62.54
2022-09-12T07:43:21.108Z,62.42
2022-09-12T07:45:47.582Z,62.39
2022-09-12T07:48:13.940Z,62.55
2022-09-12T07:50:44.978Z,62.83
2022-09-12T07:53:11.503Z,62.42
2022-09-12T07:55:37.847Z,62.45
2022-09-12T07:58:04.167Z,62.30
2022-09-12T08:00:31.790Z,62.66
2022-09-12T08:02:58.126Z,62.55
2022-09-12T08:05:24.447Z,62.85
2022-09-12T08:07:52.713Z,62.26
2022-09-12T08:10:22.219Z,62.14
2022-09-12T08:12:48.676Z,62.21
2022-09-12T08:15:15.023Z,62.53
2022-09-12T08:17:42.677Z,62.67
2022-09-12T08:20:09.139Z,62.81
2022-09-12T08:22:35.500Z,61.95
2022-09-12T08:25:01.853Z,61.05
2022-09-12T08:27:28.162Z,60.69
2022-09-12T08:29:54.484Z,60.61
2022-09-12T08:32:20.844Z,60.46
2022-09-12T08:34:48.466Z,60.30
2022-09-12T08:37:14.816Z,60.12
2022-09-12T08:39:41.162Z,60.13
2022-09-12T08:44:47.251Z,60.12
2022-09-12T08:47:17.753Z,59.54
2022-09-12T08:49:48.632Z,59.53
2022-09-12T08:52:19.051Z,59.68
2022-09-12T08:54:45.499Z,59.78
2022-09-12T08:57:11.908Z,59.78
2022-09-12T08:59:39.651Z,59.70
2022-09-12T09:02:12.984Z,59.46
2022-09-12T09:04:48.017Z,59.54
2022-09-12T09:07:22.717Z,59.41
2022-09-12T09:09:56.480Z,59.15
2022-09-12T09:12:25.426Z,59.08
2022-09-12T09:15:03.337Z,58.71
2022-09-12T09:17:32.268Z,58.58
2022-09-12T09:20:03.097Z,58.42
2022-09-12T09:22:36.175Z,58.27
2022-09-12T09:25:05.246Z,58.49
2022-09-12T09:27:41.546Z,59.03
2022-09-12T09:30:12.852Z,58.65
2022-09-12T09:32:40.864Z,58.33
2022-09-12T09:35:12.380Z,58.75
2022-09-12T09:37:42.001Z,59.00
2022-09-12T09:40:15.603Z,59.35
2022-09-12T09:42:45.316Z,59.41
2022-09-12T09:45:13.978Z,59.38
2022-09-12T09:47:40.328Z,59.53
2022-09-12T09:50:07.070Z,59.75
2022-09-12T09:52:35.292Z,59.85
2022-09-12T09:55:03.177Z,60.68
2022-09-12T09:57:44.385Z,61.07
2022-09-12T10:00:25.557Z,60.09
2022-09-12T10:03:00.900Z,59.28
2022-09-12T10:05:27.435Z,59.54
2022-09-12T10:07:53.911Z,59.75
2022-09-12T10:10:21.563Z,59.75
2022-09-12T10:12:48.183Z,59.72
2022-09-12T10:15:17.855Z,59.45
2022-09-12T10:17:45.044Z,59.56
2022-09-12T10:20:26.320Z,58.96
2022-09-12T10:22:52.611Z,59.23
2022-09-12T10:25:19.620Z,59.35
2022-09-12T10:27:52.296Z,59.09
2022-09-12T10:30:19.515Z,59.08
2022-09-12T10:32:46.684Z,58.63
2022-09-12T10:35:17.208Z,58.79
2022-09-12T10:37:52.417Z,58.73
2022-09-12T10:40:22.548Z,58.69
2022-09-12T10:42:51.650Z,58.62
2022-09-12T10:45:21.240Z,59.05
2022-09-12T10:47:48.033Z,58.64
2022-09-12T10:50:23.383Z,58.90
2022-09-12T10:52:49.869Z,58.69
2022-09-12T10:55:16.601Z,58.86
2022-09-12T10:57:58.641Z,62.26
2022-09-12T11:00:25.070Z,63.13
2022-09-12T11:02:57.133Z,63.45
2022-09-12T11:05:35.458Z,62.68
2022-09-12T11:08:08.361Z,62.19
2022-09-12T11:10:44.290Z,62.35
2022-09-12T11:13:17.032Z,62.32
2022-09-12T11:15:55.670Z,60.68
2022-09-12T11:18:29.482Z,60.89
2022-09-12T11:21:02.133Z,60.36
2022-09-12T11:23:43.405Z,60.51
2022-09-12T11:26:16.818Z,60.42
2022-09-12T11:28:52.430Z,60.39
2022-09-12T11:31:40.113Z,60.03
2022-09-12T11:34:08.764Z,59.93
2022-09-12T11:36:39.203Z,59.67
2022-09-12T11:39:10.680Z,59.22
2022-09-12T11:41:38.154Z,59.13
2022-09-12T11:44:10.300Z,59.33
2022-09-12T11:46:37.814Z,59.73
2022-09-12T11:49:07.005Z,59.82
2022-09-12T11:51:35.663Z,59.71
2022-09-12T11:54:06.584Z,59.69
2022-09-12T11:56:34.425Z,59.39
2022-09-12T11:59:03.056Z,59.43
2022-09-12T12:01:37.431Z,59.43
2022-09-12T12:04:11.381Z,59.47
2022-09-12T12:06:43.357Z,59.45
2022-09-12T12:09:11.236Z,59.14
2022-09-12T12:11:39.547Z,59.15
2022-09-12T12:14:07.632Z,59.19
2022-09-12T12:16:37.788Z,59.07
2022-09-12T12:19:10.471Z,58.98
2022-09-12T12:21:40.170Z,58.94
2022-09-12T12:24:15.752Z,58.91
2022-09-12T12:26:43.933Z,58.79
2022-09-12T12:29:10.669Z,58.75
2022-09-12T12:32:08.445Z,59.11
2022-09-12T12:34:35.999Z,59.04
2022-09-12T12:37:32.214Z,59.10
2022-09-12T12:39:59.627Z,58.92
2022-09-12T12:42:36.214Z,58.69
2022-09-12T12:45:03.154Z,58.67
2022-09-12T12:47:32.868Z,58.39
2022-09-12T12:50:01.546Z,58.28
2022-09-12T12:52:29.833Z,58.10
2022-09-12T12:54:57.638Z,57.81
2022-09-12T12:57:37.702Z,57.92
2022-09-12T13:00:05.676Z,57.97
2022-09-12T13:02:35.883Z,57.94
2022-09-12T13:05:05.228Z,57.56
2022-09-12T13:07:33.677Z,57.31
2022-09-12T13:10:01.063Z,57.47
2022-09-12T13:12:29.001Z,57.27
2022-09-12T13:14:56.092Z,57.34
2022-09-12T13:17:24.624Z,56.96
2022-09-12T13:20:10.651Z,56.82
2022-09-12T13:22:41.351Z,57.16
2022-09-12T13:25:18.580Z,56.96
2022-09-12T13:27:56.530Z,57.09
2022-09-12T13:30:27.193Z,57.23
2022-09-12T13:32:53.742Z,57.14
2022-09-12T13:35:23.736Z,57.04
2022-09-12T13:37:54.500Z,57.20
2022-09-12T13:40:28.827Z,57.33
2022-09-12T13:43:07.668Z,57.54
2022-09-12T13:45:37.398Z,57.41
2022-09-12T13:48:04.055Z,57.71
2022-09-12T13:50:33.196Z,57.56
2022-09-12T13:53:01.574Z,57.72
2022-09-12T13:55:29.958Z,57.66
2022-09-12T13:57:57.459Z,57.69
2022-09-12T14:00:23.924Z,57.77
2022-09-12T14:02:50.298Z,57.94
2022-09-12T14:05:19.558Z,57.68
2022-09-12T14:07:51.723Z,57.75
2022-09-12T14:10:21.597Z,57.80
2022-09-12T14:12:48.026Z,58.00
2022-09-12T14:15:16.801Z,57.89
2022-09-12T14:17:48.707Z,57.80
2022-09-12T14:20:15.881Z,57.58
2022-09-12T14:22:42.364Z,57.90
2022-09-12T14:25:14.448Z,57.83
2022-09-12T14:27:42.597Z,57.61
2022-09-12T14:30:21.159Z,57.70
2022-09-12T14:33:02.320Z,57.84
2022-09-12T14:35:28.832Z,57.59
2022-09-12T14:37:55.514Z,57.57
2022-09-12T14:40:25.873Z,57.25
2022-09-12T14:42:52.648Z,57.52
2022-09-12T14:45:23.849Z,57.50
2022-09-12T14:47:51.060Z,57.58
2022-09-12T14:50:18.549Z,57.78
2022-09-12T14:52:44.862Z,57.70
2022-09-12T14:55:23.242Z,57.52
2022-09-12T14:58:06.603Z,57.25
2022-09-12T15:00:33.047Z,57.25
2022-09-12T15:03:19.319Z,56.88
2022-09-12T15:05:48.879Z,56.70
2022-09-12T15:08:15.212Z,56.78
2022-09-12T15:10:41.563Z,56.46
2022-09-12T15:13:17.514Z,56.52
2022-09-12T15:15:44.859Z,56.62
2022-09-12T15:18:11.288Z,56.44
2022-09-12T15:20:38.343Z,56.51
2022-09-12T15:23:05.294Z,56.53
2022-09-12T15:25:31.841Z,56.40
2022-09-12T15:27:58.194Z,56.42
2022-09-12T15:30:25.931Z,56.33
2022-09-12T15:32:52.316Z,56.43
2022-09-12T15:35:20.324Z,56.51
2022-09-12T15:37:46.655Z,56.08
2022-09-12T15:40:13.291Z,55.81
2022-09-12T15:42:39.841Z,55.38
2022-09-12T15:45:13.875Z,55.15
2022-09-12T15:47:41.543Z,55.13
2022-09-12T15:50:08.196Z,55.27
2022-09-12T15:52:34.557Z,55.16
2022-09-12T15:55:00.902Z,55.22
2022-09-12T15:57:27.341Z,55.10
2022-09-12T15:59:53.666Z,55.17
2022-09-12T16:02:20.239Z,55.05
2022-09-12T16:04:47.912Z,56.66
2022-09-12T16:07:14.395Z,57.23
2022-09-12T16:09:40.728Z,57.24
2022-09-12T16:12:07.078Z,56.90
2022-09-12T16:14:33.443Z,56.83
2022-09-12T16:16:59.872Z,57.16
2022-09-12T16:19:26.267Z,57.36
2022-09-12T16:21:54.128Z,57.67
2022-09-12T16:24:20.485Z,57.93
2022-09-12T16:26:46.893Z,58.07
2022-09-12T16:29:13.439Z,57.97
2022-09-12T16:31:39.746Z,57.88
2022-09-12T16:34:06.305Z,58.05
2022-09-12T16:36:32.673Z,57.70
2022-09-12T16:39:00.387Z,57.70
2022-09-12T16:41:26.776Z,57.41
2022-09-12T16:43:53.871Z,57.49
2022-09-12T16:46:21.577Z,57.28
2022-09-12T16:48:52.100Z,57.20
2022-09-12T16:51:20.041Z,57.02
2022-09-12T16:53:46.743Z,57.20
2022-09-12T16:56:14.484Z,57.16
2022-09-12T16:58:42.158Z,57.21
2022-09-12T17:01:09.568Z,57.10
2022-09-12T17:03:36.096Z,57.08
2022-09-12T17:06:03.892Z,56.86
2022-09-12T17:08:30.535Z,56.91
2022-09-12T17:10:59.236Z,56.78
2022-09-12T17:13:41.129Z,56.55
2022-09-12T17:16:13.423Z,56.70
2022-09-12T17:18:39.800Z,56.21
2022-09-12T17:21:06.360Z,56.38
2022-09-12T17:23:32.693Z,56.70
2022-09-12T17:25:59.612Z,56.62
2022-09-12T17:28:27.533Z,56.94
2022-09-12T17:30:55.431Z,57.05
2022-09-12T17:33:21.898Z,57.23
2022-09-12T17:35:48.311Z,57.16
2022-09-12T17:38:18.621Z,57.48
2022-09-12T17:40:58.971Z,58.01
2022-09-12T17:43:27.605Z,58.66
2022-09-12T17:45:55.424Z,58.48
2022-09-12T17:48:21.769Z,58.66
2022-09-12T17:50:48.056Z,58.75
2022-09-12T17:53:14.390Z,58.83
2022-09-12T17:55:40.710Z,59.24
2022-09-12T17:58:07.073Z,59.21
2022-09-12T18:00:34.835Z,59.36
2022-09-12T18:03:01.243Z,59.50
2022-09-12T18:05:27.689Z,59.27
2022-09-12T18:07:54.051Z,59.33
2022-09-12T18:10:20.519Z,59.10
2022-09-12T18:12:46.850Z,59.16
2022-09-12T18:15:13.183Z,59.01
2022-09-12T18:17:40.773Z,58.81
2022-09-12T18:20:07.367Z,58.92
2022-09-12T18:22:33.708Z,58.70
2022-09-12T18:25:00.028Z,58.54
2022-09-12T18:27:26.338Z,58.54
2022-09-12T18:30:10.636Z,58.43
2022-09-12T18:32:38.953Z,58.29
2022-09-12T18:35:07.036Z,58.52
2022-09-12T18:37:33.487Z,58.18
2022-09-12T18:39:59.869Z,58.50
2022-09-12T18:42:26.297Z,59.49
2022-09-12T18:44:52.648Z,59.19
2022-09-12T18:47:18.981Z,59.30
2022-09-12T18:49:45.282Z,59.83
2022-09-12T18:52:12.875Z,59.93
2022-09-12T18:54:39.178Z,60.16
2022-09-12T18:57:05.527Z,60.40
2022-09-12T18:59:31.865Z,60.56
2022-09-12T19:01:58.226Z,60.14
2022-09-12T19:04:24.619Z,60.52
2022-09-12T19:06:50.987Z,61.29
2022-09-12T19:09:19.376Z,61.23
2022-09-12T19:11:46.547Z,60.66
2022-09-12T19:14:12.969Z,59.78
2022-09-12T19:16:39.288Z,59.67
2022-09-12T19:19:05.737Z,59.80
2022-09-12T19:21:33.040Z,59.78
2022-09-12T19:24:00.253Z,59.59
2022-09-12T19:26:27.948Z,59.61
2022-09-12T19:28:54.745Z,59.39
2022-09-12T19:31:21.920Z,59.24
2022-09-12T19:33:48.733Z,59.22
2022-09-12T19:36:43.415Z,58.98
2022-09-12T19:39:03.193Z,58.96
2022-09-12T19:41:30.899Z,58.73
2022-09-12T19:43:57.415Z,58.69
2022-09-12T19:46:24.898Z,58.33
2022-09-12T19:48:51.620Z,58.71
2022-09-12T19:51:18.999Z,58.84
2022-09-12T19:53:45.652Z,58.46
2022-09-12T19:56:12.996Z,58.28
2022-09-12T19:58:41.493Z,58.27
2022-09-12T20:01:08.701Z,58.17
2022-09-12T20:03:35.056Z,58.50
2022-09-12T20:06:01.881Z,58.34
2022-09-12T20:08:28.229Z,58.46
2022-09-12T20:10:57.018Z,58.38
2022-09-12T20:13:23.622Z,59.35
2022-09-12T20:15:51.286Z,59.89
2022-09-12T20:18:18.640Z,59.64
2022-09-12T20:20:45.049Z,59.57
2022-09-12T20:23:11.491Z,58.87
2022-09-12T20:25:37.829Z,58.57
2022-09-12T20:28:04.178Z,58.83
2022-09-12T20:30:30.494Z,59.03
2022-09-12T20:32:58.075Z,59.02
2022-09-12T20:35:24.448Z,58.93
2022-09-12T20:37:50.752Z,58.92
2022-09-12T20:40:17.183Z,58.94
2022-09-12T20:42:43.620Z,58.92
2022-09-12T20:45:10.122Z,58.85
2022-09-12T20:47:36.436Z,58.79
2022-09-12T20:50:04.354Z,58.51
2022-09-12T20:52:30.699Z,58.44
2022-09-12T20:54:57.124Z,58.39
2022-09-12T20:57:23.451Z,58.80
2022-09-12T20:59:49.785Z,58.31
2022-09-12T21:02:16.681Z,58.44
2022-09-12T21:04:43.135Z,58.31
2022-09-12T21:07:10.744Z,58.56
2022-09-12T21:09:37.108Z,58.39
2022-09-12T21:12:03.699Z,58.56
2022-09-12T21:14:30.001Z,58.87
2022-09-12T21:16:56.304Z,59.05
2022-09-12T21:19:22.653Z,58.81
2022-09-12T21:21:49.024Z,59.40
2022-09-12T21:24:16.794Z,59.80
2022-09-12T21:26:43.239Z,59.96
2022-09-12T21:29:09.579Z,59.04
2022-09-12T21:31:35.952Z,58.88
2022-09-12T21:34:02.362Z,58.95
2022-09-12T21:36:28.684Z,58.88
2022-09-12T21:38:57.173Z,59.02
2022-09-12T21:41:24.916Z,58.94
2022-09-12T21:43:51.361Z,58.86
2022-09-12T21:46:17.735Z,58.70
2022-09-12T21:48:44.277Z,58.60
2022-09-12T21:51:10.931Z,58.68
2022-09-12T21:53:37.612Z,58.47
2022-09-12T21:56:04.656Z,58.24
2022-09-12T21:58:32.347Z,58.25
2022-09-12T22:00:58.904Z,58.10
2022-09-12T22:03:25.419Z,58.04
2022-09-12T22:05:56.063Z,58.03
2022-09-12T22:08:22.389Z,58.44
2022-09-12T22:10:48.875Z,58.04
2022-09-12T22:13:15.284Z,57.79
2022-09-12T22:15:44.392Z,57.90
2022-09-12T22:18:10.699Z,57.84
2022-09-12T22:20:37.017Z,57.95
2022-09-12T22:23:03.449Z,57.92
2022-09-12T22:25:29.904Z,58.09
2022-09-12T22:27:56.273Z,58.10
2022-09-12T22:30:23.050Z,58.14
2022-09-12T22:32:50.838Z,58.76
2022-09-12T22:35:17.717Z,59.17
2022-09-12T22:37:44.150Z,59.37
2022-09-12T22:40:11.111Z,58.64
2022-09-12T22:42:37.493Z,58.63
2022-09-12T22:45:04.063Z,58.82
2022-09-12T22:47:30.485Z,58.81
2022-09-12T22:49:58.077Z,58.83
2022-09-12T22:52:24.418Z,58.83
2022-09-12T22:54:50.779Z,58.82
2022-09-12T22:57:17.544Z,58.75
2022-09-12T22:59:43.881Z,58.36
2022-09-12T23:02:10.445Z,58.23
2022-09-12T23:04:36.716Z,58.09
2022-09-12T23:07:04.348Z,58.23
2022-09-12T23:09:34.715Z,57.76
2022-09-12T23:12:01.904Z,57.93
2022-09-12T23:14:28.202Z,58.21
2022-09-12T23:16:56.342Z,57.73
2022-09-12T23:19:22.679Z,58.22
2022-09-12T23:21:49.005Z,58.17
2022-09-12T23:24:16.606Z,57.74
2022-09-12T23:26:42.927Z,58.24
2022-09-12T23:29:09.329Z,58.44
2022-09-12T23:31:35.718Z,58.34
2022-09-12T23:34:03.271Z,59.17
2022-09-12T23:36:29.905Z,59.25
2022-09-12T23:38:56.618Z,59.36
2022-09-12T23:41:24.429Z,58.31
2022-09-12T23:43:50.748Z,57.97
2022-09-12T23:46:18.044Z,57.81
2022-09-12T23:48:44.578Z,58.04
2022-09-12T23:51:10.993Z,58.28
2022-09-12T23:53:37.666Z,58.26
2022-09-12T23:56:04.067Z,58.07
2022-09-12T23:58:31.878Z,57.96
